Current Conditions
Fog
Conditions



Pressure
1026.92 (hPa) - 30.32 (inHG)
Visibility

0.1 (km) - 0.1 (miles)
   Temperature
3  °C
Temperature
2  °C
Dewpoint
93  %
 Humidity
   Wind Speed
2.7  m/s
6  mph
10  km/h
5  kts
   Wind Direction
N
45°
E
90°
135°
S
180°
225°
W
270°
315°
 200°

South South
West
   Airport Data
ESGG
Gothenburg-Landvetter Airport
Metar :ESGG 230920Z 20005KT 0150 R03/0400N R21/0400N FG VV002 03/02 Q1027
Sun 23rd January 10:20 am
   Raw Metar Info
Raw METAR is the most common format in the world for the transmission of observational weather data. It is highly standardized through the International Civil Aviation Organization (ICAO), which allows it to be understood throughout most of the world.
   API Info
Data Provided by
https://www.checkwx.com/weather/ESGG

Aviation Weather providing METAR, TAF, AIRMET, SIGMET and OUTLOOK Weather Reports
   © Info
CSS/SVG/PHP scripts were developed by weather34.com for use in the weather34 template © 2015-2022

Guide Info provided by Metar-Wikipedia